Time;durP1;ratioP1;P1;durP2;ratioP2;P2;SDS_P1;SDS_P2;PMS_P1;PMS_P2;Temp;Humidity;BMP_temperature;BMP_pressure;BME280_temperature;BME280_humidity;BME280_pressure;Samples;Min_cycle;Max_cycle;Signal;HPM_P1;HPM_P2
2024/04/03 00:00:00;;;;;;;7.43;2.00;;;12.60;96.70;;;;;;5058560;28;20058;-69
2024/04/03 00:02:27;;;;;;;5.00;1.77;;;12.60;96.70;;;;;;5058533;28;20052;-70
2024/04/03 00:04:55;;;;;;;5.25;1.45;;;12.60;96.70;;;;;;5074490;28;20043;-69
2024/04/03 00:07:25;;;;;;;3.30;1.30;;;12.60;96.70;;;;;;5058429;28;20092;-70
2024/04/03 00:09:53;;;;;;;7.35;1.92;;;12.60;96.70;;;;;;5089997;28;20392;-70
2024/04/03 00:12:21;;;;;;;5.88;1.88;;;12.50;96.70;;;;;;5057842;28;20052;-69
2024/04/03 00:14:50;;;;;;;5.93;1.38;;;12.40;96.70;;;;;;5074452;28;20073;-70
2024/04/03 00:17:17;;;;;;;4.50;1.40;;;12.40;96.70;;;;;;5054569;28;20052;-70
2024/04/03 00:19:44;;;;;;;7.47;2.15;;;12.50;96.70;;;;;;5057629;28;20138;-70
2024/04/03 00:22:12;;;;;;;4.60;1.52;;;12.50;96.70;;;;;;5074513;28;20158;-70
2024/04/03 00:24:42;;;;;;;3.03;1.10;;;12.50;96.70;;;;;;5090502;28;20088;-69
2024/04/03 00:27:09;;;;;;;5.13;1.20;;;12.40;96.70;;;;;;5073584;28;20047;-70
2024/04/03 00:29:37;;;;;;;5.63;1.35;;;12.40;96.70;;;;;;5041311;28;20062;-70
2024/04/03 00:32:06;;;;;;;3.78;1.35;;;12.40;96.70;;;;;;5051924;28;20520;-70
2024/04/03 00:34:35;;;;;;;4.85;1.30;;;12.40;96.70;;;;;;5043303;28;20040;-70
2024/04/03 00:37:04;;;;;;;6.13;1.58;;;12.40;96.70;;;;;;5060600;28;20575;-70
2024/04/03 00:39:31;;;;;;;5.00;1.65;;;12.40;96.70;;;;;;5034734;28;20128;-69
2024/04/03 00:42:01;;;;;;;5.45;1.67;;;12.30;96.70;;;;;;5050341;28;20060;-70
2024/04/03 00:44:29;;;;;;;6.55;1.60;;;12.20;96.70;;;;;;5043340;28;20128;-70
2024/04/03 00:47:01;;;;;;;4.57;1.42;;;12.30;96.70;;;;;;5062885;28;20051;-70
2024/04/03 00:49:29;;;;;;;4.30;1.27;;;12.30;96.70;;;;;;5034187;28;20105;-70
2024/04/03 00:51:57;;;;;;;6.03;1.60;;;12.30;96.70;;;;;;5036055;28;20603;-69
2024/04/03 00:54:26;;;;;;;8.05;1.30;;;12.30;96.70;;;;;;5053119;28;20051;-70
2024/04/03 00:56:54;;;;;;;8.10;1.65;;;12.40;96.70;;;;;;5051415;28;20055;-70
2024/04/03 00:59:23;;;;;;;3.63;1.13;;;12.40;96.70;;;;;;5035086;28;20048;-70
2024/04/03 01:01:52;;;;;;;6.88;2.05;;;12.40;96.70;;;;;;5029178;28;20062;-70
2024/04/03 01:04:20;;;;;;;6.05;1.23;;;12.40;96.70;;;;;;5032867;28;20044;-69
2024/04/03 01:06:48;;;;;;;8.57;1.80;;;12.40;96.70;;;;;;5057976;28;20127;-70
2024/04/03 01:09:16;;;;;;;6.03;1.40;;;12.50;96.70;;;;;;5043628;28;20598;-70
2024/04/03 01:11:44;;;;;;;6.15;1.27;;;12.50;96.70;;;;;;5049932;28;20562;-69
2024/04/03 01:14:12;;;;;;;8.45;1.50;;;12.40;96.70;;;;;;5031760;28;20421;-70
2024/04/03 01:16:42;;;;;;;3.42;1.20;;;12.50;96.70;;;;;;5065046;28;20048;-70
2024/04/03 01:19:10;;;;;;;5.18;1.75;;;12.50;96.70;;;;;;5049348;28;20052;-70
2024/04/03 01:21:39;;;;;;;5.43;1.92;;;12.40;96.70;;;;;;5039751;28;20071;-70
2024/04/03 01:24:09;;;;;;;3.65;1.05;;;12.40;96.70;;;;;;5033992;28;20047;-69
2024/04/03 01:26:36;;;;;;;3.03;1.23;;;12.40;96.70;;;;;;5035750;28;20112;-70
2024/04/03 01:29:05;;;;;;;6.80;1.25;;;12.40;96.70;;;;;;5062788;28;20048;-70
2024/04/03 01:31:33;;;;;;;4.22;1.30;;;12.40;96.70;;;;;;5035191;28;20064;-69
2024/04/03 01:34:00;;;;;;;4.45;1.17;;;12.40;96.70;;;;;;5039261;28;20073;-69
2024/04/03 01:36:28;;;;;;;3.72;1.20;;;12.40;96.70;;;;;;5043338;28;20693;-69
2024/04/03 01:38:56;;;;;;;2.40;1.08;;;12.30;96.70;;;;;;5050432;28;20055;-70
2024/04/03 01:41:27;;;;;;;4.75;1.25;;;12.30;96.70;;;;;;5050374;28;20052;-69
2024/04/03 01:43:56;;;;;;;3.22;1.25;;;12.20;96.70;;;;;;5053354;28;20049;-70
2024/04/03 01:46:24;;;;;;;6.82;1.45;;;12.20;96.70;;;;;;5070475;28;20511;-70
2024/04/03 01:48:52;;;;;;;5.43;1.30;;;12.30;96.70;;;;;;5047352;28;20117;-70
2024/04/03 01:51:22;;;;;;;7.95;1.33;;;12.30;96.70;;;;;;5034471;28;20060;-70
2024/04/03 01:53:50;;;;;;;4.45;1.10;;;12.30;96.70;;;;;;5057663;28;20055;-70
2024/04/03 01:56:17;;;;;;;5.55;1.33;;;12.40;96.70;;;;;;5055400;28;20071;-70
2024/04/03 01:58:47;;;;;;;4.93;1.38;;;12.40;96.70;;;;;;5032772;28;20505;-69
2024/04/03 02:01:16;;;;;;;4.80;1.52;;;12.40;96.70;;;;;;5050285;28;20043;-69
2024/04/03 02:03:45;;;;;;;4.40;1.25;;;12.40;96.70;;;;;;5062023;28;20056;-70
2024/04/03 02:06:14;;;;;;;6.80;1.30;;;12.40;96.70;;;;;;5075129;28;20044;-70
2024/04/03 02:08:41;;;;;;;2.90;0.90;;;12.40;96.70;;;;;;5059355;28;20056;-70
2024/04/03 02:11:09;;;;;;;5.32;1.40;;;12.40;96.70;;;;;;5045970;28;20044;-69
2024/04/03 02:13:37;;;;;;;5.03;1.08;;;12.40;96.70;;;;;;5042826;28;20143;-70
2024/04/03 02:16:06;;;;;;;5.90;1.48;;;12.40;96.70;;;;;;5037963;28;20137;-69
2024/04/03 02:18:35;;;;;;;7.15;1.75;;;12.40;96.70;;;;;;5052389;28;20122;-70
2024/04/03 02:21:02;;;;;;;4.40;1.23;;;12.40;96.70;;;;;;5034083;28;20048;-69
2024/04/03 02:23:30;;;;;;;3.70;1.15;;;12.40;96.70;;;;;;5050012;28;20044;-70
2024/04/03 02:25:58;;;;;;;3.60;1.23;;;12.40;96.70;;;;;;5049259;28;20048;-70
2024/04/03 02:28:25;;;;;;;4.68;1.20;;;12.40;96.70;;;;;;5059578;28;20056;-69
2024/04/03 02:30:59;;;;;;;8.25;1.30;;;12.40;96.70;;;;;;5048417;28;20057;-70
2024/04/03 02:33:29;;;;;;;5.18;1.10;;;12.40;96.70;;;;;;5049814;28;20052;-70
2024/04/03 02:35:57;;;;;;;4.38;1.05;;;12.40;96.70;;;;;;5075085;28;20093;-70
2024/04/03 02:38:24;;;;;;;6.25;1.20;;;12.40;96.70;;;;;;5050542;28;20052;-70
2024/04/03 02:40:52;;;;;;;5.43;1.20;;;12.30;96.70;;;;;;5038582;28;20138;-70
2024/04/03 02:43:20;;;;;;;3.92;1.05;;;12.30;96.70;;;;;;5065865;28;20221;-70
2024/04/03 02:45:54;;;;;;;5.43;1.40;;;12.30;96.70;;;;;;5055057;28;20048;-70
2024/04/03 02:48:22;;;;;;;6.55;1.38;;;12.30;96.70;;;;;;5041644;28;20044;-70
2024/04/03 02:51:01;;;;;;;6.50;1.10;;;12.30;96.70;;;;;;5049683;28;20068;-69
2024/04/03 02:53:29;;;;;;;4.43;1.70;;;12.30;96.70;;;;;;5051166;28;20052;-70
2024/04/03 02:55:59;;;;;;;4.60;1.05;;;12.30;96.70;;;;;;5031860;28;20138;-70
2024/04/03 02:58:29;;;;;;;3.95;1.00;;;12.40;96.70;;;;;;5031387;28;20048;-70
2024/04/03 03:01:01;;;;;;;4.30;1.02;;;12.30;96.70;;;;;;5056965;28;20044;-70
2024/04/03 03:03:30;;;;;;;2.42;1.00;;;12.30;96.70;;;;;;5055858;28;20509;-69
2024/04/03 03:06:00;;;;;;;10.90;1.55;;;12.40;96.70;;;;;;5033985;28;20495;-70
2024/04/03 03:08:30;;;;;;;6.03;1.48;;;12.40;96.70;;;;;;5049729;28;20067;-70
2024/04/03 03:10:59;;;;;;;2.97;1.33;;;12.40;96.70;;;;;;5041005;28;20815;-69
2024/04/03 03:13:27;;;;;;;2.78;1.00;;;12.40;96.70;;;;;;5039147;28;20052;-70
2024/04/03 03:15:56;;;;;;;4.88;0.93;;;12.40;96.70;;;;;;5038436;28;20113;-70
2024/04/03 03:18:25;;;;;;;4.57;1.20;;;12.40;96.70;;;;;;5052720;28;20151;-70
2024/04/03 03:20:56;;;;;;;5.28;1.38;;;12.30;96.70;;;;;;5037703;28;20052;-71
2024/04/03 03:23:26;;;;;;;6.93;1.27;;;12.30;96.70;;;;;;5056579;28;20044;-70
2024/04/03 03:25:54;;;;;;;6.25;1.35;;;12.30;96.70;;;;;;5048861;28;20075;-69
2024/04/03 03:28:21;;;;;;;5.95;1.42;;;12.20;96.70;;;;;;5048061;28;20057;-70
2024/04/03 03:30:50;;;;;;;5.95;1.52;;;12.20;96.70;;;;;;5048194;28;20078;-70
2024/04/03 03:33:18;;;;;;;3.85;1.05;;;12.20;96.70;;;;;;5048106;28;20409;-69
2024/04/03 03:35:50;;;;;;;4.40;1.40;;;12.20;96.70;;;;;;5048393;28;20067;-69
2024/04/03 03:38:19;;;;;;;2.72;1.05;;;12.20;96.70;;;;;;5047243;28;20060;-70
2024/04/03 03:40:49;;;;;;;5.50;1.30;;;12.20;96.70;;;;;;5031779;28;20072;-70
2024/04/03 03:43:17;;;;;;;4.07;1.38;;;12.30;96.70;;;;;;5031991;28;20049;-69
2024/04/03 03:45:45;;;;;;;4.35;1.17;;;12.30;96.70;;;;;;5043854;28;20514;-69
2024/04/03 03:48:13;;;;;;;6.03;1.88;;;12.30;96.70;;;;;;5047526;28;20056;-70
2024/04/03 03:53:31;;;;;;;4.10;1.55;;;12.30;96.70;;;;;;5041711;28;20047;-69
2024/04/03 03:56:08;;;;;;;7.88;1.50;;;12.20;96.70;;;;;;5030737;28;20055;-70
2024/04/03 03:58:36;;;;;;;4.40;1.23;;;12.30;96.70;;;;;;5032353;28;20101;-70
2024/04/03 04:01:04;;;;;;;8.80;1.70;;;12.20;96.70;;;;;;5026084;28;20048;-71
2024/04/03 04:03:32;;;;;;;5.47;1.23;;;12.20;96.70;;;;;;5045555;28;20700;-71
2024/04/03 04:06:00;;;;;;;3.03;1.10;;;12.30;96.70;;;;;;5026192;28;20138;-70
2024/04/03 04:08:28;;;;;;;3.38;1.02;;;12.20;96.70;;;;;;5026749;28;20052;-71
2024/04/03 04:10:59;;;;;;;4.63;1.10;;;12.20;96.70;;;;;;5029558;28;20079;-70
2024/04/03 04:13:28;;;;;;;5.05;1.08;;;12.20;96.70;;;;;;5045037;28;20060;-71
2024/04/03 04:15:59;;;;;;;8.30;1.17;;;12.20;96.70;;;;;;5046632;28;20751;-71
2024/04/03 04:18:29;;;;;;;3.25;0.98;;;12.20;96.70;;;;;;5031163;28;20059;-71
2024/04/03 04:20:56;;;;;;;3.30;1.02;;;12.30;96.70;;;;;;5046034;28;20079;-70
2024/04/03 04:23:25;;;;;;;5.13;0.73;;;12.20;96.70;;;;;;5030254;28;20056;-71
2024/04/03 04:26:01;;;;;;;4.38;1.10;;;12.30;96.70;;;;;;5045272;28;20051;-71
2024/04/03 04:28:31;;;;;;;5.22;1.58;;;12.30;96.70;;;;;;5026176;28;20140;-71
2024/04/03 04:30:58;;;;;;;5.05;1.02;;;12.30;96.70;;;;;;5044031;28;20045;-70
2024/04/03 04:33:29;;;;;;;5.22;0.88;;;12.20;96.70;;;;;;5033543;28;20045;-70
2024/04/03 04:35:57;;;;;;;3.42;1.05;;;12.20;96.70;;;;;;5037188;28;20179;-71
2024/04/03 04:38:28;;;;;;;6.57;1.02;;;12.20;96.70;;;;;;5025088;28;20460;-71
2024/04/03 04:40:57;;;;;;;3.58;0.90;;;12.20;96.70;;;;;;5033361;28;20048;-71
2024/04/03 04:43:27;;;;;;;5.95;1.10;;;12.40;96.70;;;;;;5049995;28;20041;-71
2024/04/03 04:45:59;;;;;;;4.43;1.30;;;12.30;96.70;;;;;;5067740;28;20055;-71
2024/04/03 04:48:30;;;;;;;5.88;1.30;;;12.30;96.70;;;;;;5049727;28;20135;-70
2024/04/03 04:50:58;;;;;;;3.13;1.17;;;12.20;96.70;;;;;;5042115;28;20040;-71
2024/04/03 04:53:28;;;;;;;4.40;1.15;;;12.30;96.70;;;;;;5050637;28;20048;-70
2024/04/03 04:56:01;;;;;;;2.65;1.10;;;12.30;96.70;;;;;;5050167;28;20146;-70
2024/04/03 04:58:30;;;;;;;4.35;0.90;;;12.30;96.70;;;;;;5047692;28;20045;-71
2024/04/03 05:01:03;;;;;;;4.35;1.58;;;12.30;96.70;;;;;;5049747;28;20143;-71
2024/04/03 05:03:32;;;;;;;3.35;0.75;;;12.20;96.70;;;;;;5042728;28;20087;-70
2024/04/03 05:05:59;;;;;;;3.67;0.98;;;12.20;96.70;;;;;;5038939;28;20740;-70
2024/04/03 05:08:27;;;;;;;2.55;0.93;;;12.20;96.70;;;;;;5030016;28;20071;-71
2024/04/03 05:10:58;;;;;;;6.07;1.15;;;12.30;96.70;;;;;;5034040;28;20044;-71
2024/04/03 05:13:27;;;;;;;5.50;1.15;;;12.30;96.70;;;;;;5033696;28;20078;-70
2024/04/03 05:15:55;;;;;;;5.57;1.52;;;12.20;96.70;;;;;;5057110;28;20075;-70
2024/04/03 05:18:25;;;;;;;4.88;1.05;;;12.20;96.70;;;;;;5050558;28;20052;-70
2024/04/03 05:20:53;;;;;;;3.22;1.00;;;12.30;96.70;;;;;;5032435;28;20577;-71
2024/04/03 05:23:22;;;;;;;5.22;1.20;;;12.30;96.70;;;;;;5049268;28;20051;-71
2024/04/03 05:25:56;;;;;;;3.75;0.95;;;12.30;96.70;;;;;;5025459;28;20056;-70
2024/04/03 05:28:25;;;;;;;4.57;1.13;;;12.30;96.70;;;;;;5036076;28;20053;-71
2024/04/03 05:30:55;;;;;;;5.72;1.33;;;12.30;96.70;;;;;;5064125;28;20052;-71
2024/04/03 05:33:24;;;;;;;5.78;1.20;;;12.20;96.70;;;;;;5067936;28;20545;-71
2024/04/03 05:35:55;;;;;;;5.03;1.17;;;12.20;96.70;;;;;;5058114;28;20045;-71
2024/04/03 05:38:24;;;;;;;6.32;1.20;;;12.30;96.70;;;;;;5053517;28;20060;-70
2024/04/03 05:40:52;;;;;;;5.07;1.50;;;12.40;96.70;;;;;;5087151;28;20032;-71
2024/04/03 05:43:21;;;;;;;6.50;2.00;;;12.40;96.70;;;;;;5076305;28;20128;-70
2024/04/03 05:45:52;;;;;;;8.10;2.50;;;12.40;96.70;;;;;;5052492;28;20094;-68
2024/04/03 05:48:23;;;;;;;7.03;2.10;;;12.40;96.70;;;;;;5052695;28;20139;-68
2024/04/03 05:51:02;;;;;;;6.90;2.10;;;12.40;96.70;;;;;;5068987;28;20048;-67
2024/04/03 05:53:29;;;;;;;8.80;2.53;;;12.50;96.70;;;;;;5069376;28;20044;-68
2024/04/03 05:55:59;;;;;;;7.00;2.22;;;12.50;96.70;;;;;;5068521;28;20046;-68
2024/04/03 05:58:28;;;;;;;9.88;2.05;;;12.50;96.70;;;;;;5066739;28;20044;-68
2024/04/03 06:01:01;;;;;;;8.27;2.58;;;12.50;96.70;;;;;;5068766;28;20052;-68
2024/04/03 06:03:31;;;;;;;8.43;2.10;;;12.40;96.70;;;;;;5081924;28;20048;-68
2024/04/03 06:06:01;;;;;;;9.27;2.45;;;12.40;96.70;;;;;;5070289;28;20043;-68
2024/04/03 06:08:29;;;;;;;4.82;1.90;;;12.40;96.70;;;;;;5053015;28;20044;-69
2024/04/03 06:10:57;;;;;;;7.90;1.65;;;12.40;96.70;;;;;;5053742;28;20565;-68
2024/04/03 06:13:24;;;;;;;6.40;1.70;;;12.40;96.70;;;;;;5052457;28;20461;-68
2024/04/03 06:15:53;;;;;;;7.03;2.08;;;12.40;96.70;;;;;;5085382;28;20076;-69
2024/04/03 06:18:23;;;;;;;7.03;1.60;;;12.40;96.70;;;;;;5068834;28;20143;-69
2024/04/03 06:20:52;;;;;;;5.38;1.90;;;12.50;96.70;;;;;;5053184;28;20857;-69
2024/04/03 06:23:22;;;;;;;4.68;1.50;;;12.50;96.70;;;;;;5053380;28;20082;-69
2024/04/03 06:25:51;;;;;;;5.10;1.40;;;12.50;96.70;;;;;;5052331;28;20134;-69
2024/04/03 06:28:19;;;;;;;10.77;4.03;;;12.50;96.70;;;;;;5064906;28;20083;-69
2024/04/03 06:30:49;;;;;;;11.48;5.18;;;12.60;96.70;;;;;;5045902;28;20090;-69
2024/04/03 06:33:17;;;;;;;10.50;5.32;;;12.70;96.70;;;;;;5059306;28;20093;-69
2024/04/03 06:35:45;;;;;;;10.75;5.75;;;12.70;96.70;;;;;;5040438;28;20044;-69
2024/04/03 06:38:14;;;;;;;15.13;6.70;;;12.80;96.70;;;;;;5033749;28;20040;-68
2024/04/03 06:40:42;;;;;;;12.27;6.25;;;12.80;96.70;;;;;;5057531;28;20074;-68
2024/04/03 06:43:10;;;;;;;11.38;6.28;;;12.90;96.70;;;;;;5057481;28;20415;-68
2024/04/03 06:45:40;;;;;;;10.65;6.07;;;13.00;96.70;;;;;;5050277;28;20535;-69
2024/04/03 06:48:10;;;;;;;9.73;5.90;;;13.00;96.70;;;;;;5049716;28;20048;-68
2024/04/03 06:50:38;;;;;;;11.57;5.22;;;13.10;96.70;;;;;;5064453;28;20116;-69
2024/04/03 06:53:06;;;;;;;7.63;4.70;;;13.10;96.70;;;;;;5068129;28;20055;-69
2024/04/03 06:55:36;;;;;;;12.10;5.28;;;13.10;96.70;;;;;;5041943;28;20071;-69
2024/04/03 06:58:05;;;;;;;11.30;4.70;;;13.20;96.70;;;;;;5033443;28;20056;-69
2024/04/03 07:00:36;;;;;;;7.22;4.35;;;13.30;96.70;;;;;;5060576;28;20478;-69
2024/04/03 07:03:05;;;;;;;8.43;4.07;;;13.30;96.70;;;;;;5049879;28;20815;-69
2024/04/03 07:05:32;;;;;;;8.57;3.78;;;13.40;96.70;;;;;;5074682;28;20493;-68
2024/04/03 07:08:00;;;;;;;10.10;4.10;;;13.40;96.70;;;;;;5058324;28;20456;-68
2024/04/03 07:10:28;;;;;;;8.93;3.42;;;13.50;96.70;;;;;;5050375;28;20101;-69
2024/04/03 07:13:00;;;;;;;7.20;3.08;;;13.50;96.70;;;;;;5056012;28;20048;-68
2024/04/03 07:15:32;;;;;;;8.80;3.40;;;13.50;96.70;;;;;;5038967;28;20048;-69
2024/04/03 07:18:01;;;;;;;9.30;3.55;;;13.60;96.70;;;;;;5034662;28;20066;-69
2024/04/03 07:20:29;;;;;;;6.25;2.95;;;13.50;96.70;;;;;;5055906;28;20558;-69
2024/04/03 07:22:58;;;;;;;6.78;2.63;;;13.60;96.70;;;;;;5067219;28;20067;-69
2024/04/03 07:25:26;;;;;;;7.10;2.67;;;13.60;96.70;;;;;;5067518;28;20245;-69
2024/04/03 07:27:56;;;;;;;5.85;2.80;;;13.60;96.70;;;;;;5063938;28;20047;-69
2024/04/03 07:30:31;;;;;;;6.20;2.78;;;13.80;96.70;;;;;;5071404;28;20146;-70
2024/04/03 07:32:58;;;;;;;5.13;2.33;;;13.90;96.70;;;;;;5070876;28;20584;-69
2024/04/03 07:35:26;;;;;;;8.70;2.42;;;14.00;96.70;;;;;;5071182;28;20085;-68
2024/04/03 07:37:54;;;;;;;5.15;2.08;;;14.10;96.70;;;;;;5054010;28;20397;-69
2024/04/03 07:40:22;;;;;;;6.97;1.90;;;14.20;96.70;;;;;;5055244;28;20048;-69
2024/04/03 07:42:49;;;;;;;5.57;1.90;;;14.30;96.70;;;;;;5070769;28;20055;-69
2024/04/03 07:45:18;;;;;;;6.25;1.88;;;14.30;96.70;;;;;;5054073;28;20097;-68
2024/04/03 07:47:49;;;;;;;4.05;1.20;;;14.40;96.70;;;;;;5055308;28;20051;-68
2024/04/03 07:50:17;;;;;;;7.00;1.20;;;14.40;96.70;;;;;;5054786;28;20058;-68
2024/04/03 07:52:45;;;;;;;3.35;1.10;;;14.40;96.70;;;;;;5068211;28;20044;-69
2024/04/03 07:55:13;;;;;;;9.27;1.40;;;14.40;96.70;;;;;;5055038;28;20048;-68
2024/04/03 07:57:42;;;;;;;4.80;1.50;;;14.50;96.70;;;;;;5071105;28;20138;-69
2024/04/03 08:00:11;;;;;;;3.97;1.33;;;14.50;96.70;;;;;;5056685;28;20048;-68
2024/04/03 08:02:43;;;;;;;4.95;1.30;;;14.50;96.70;;;;;;5054519;28;20071;-68
2024/04/03 08:05:13;;;;;;;7.78;1.25;;;14.50;96.70;;;;;;5070529;28;20047;-69
2024/04/03 08:07:45;;;;;;;4.32;1.38;;;14.50;96.70;;;;;;5070914;28;20092;-69
2024/04/03 08:10:13;;;;;;;6.00;1.63;;;14.50;96.70;;;;;;5053458;28;20048;-68
2024/04/03 08:12:42;;;;;;;3.58;1.30;;;14.60;96.70;;;;;;5071561;28;20122;-68
2024/04/03 08:15:13;;;;;;;5.03;1.40;;;14.60;96.70;;;;;;5059039;28;20043;-69
2024/04/03 08:17:41;;;;;;;4.90;1.88;;;14.60;96.70;;;;;;5058680;28;20120;-69
2024/04/03 08:20:12;;;;;;;7.93;2.15;;;14.60;96.70;;;;;;5067828;28;20531;-69
2024/04/03 08:22:43;;;;;;;7.53;1.33;;;14.70;96.70;;;;;;5073383;28;20096;-69
2024/04/03 08:25:12;;;;;;;3.92;1.58;;;14.70;96.70;;;;;;5057813;28;20605;-69
2024/04/03 08:27:40;;;;;;;4.43;1.83;;;14.70;96.70;;;;;;5058087;28;20054;-69
2024/04/03 08:30:08;;;;;;;8.02;1.92;;;14.70;96.70;;;;;;5057974;28;20048;-68
2024/04/03 08:32:39;;;;;;;3.70;0.95;;;14.80;96.70;;;;;;5080325;28;20410;-69
2024/04/03 08:35:07;;;;;;;7.35;1.48;;;14.80;96.70;;;;;;5074251;28;20556;-69
2024/04/03 08:37:37;;;;;;;8.38;4.05;;;14.80;96.70;;;;;;5074763;28;20491;-69
2024/04/03 08:40:09;;;;;;;9.98;4.07;;;14.90;96.70;;;;;;5057903;28;20142;-68
2024/04/03 08:42:37;;;;;;;7.82;2.42;;;15.00;96.70;;;;;;5074591;28;20039;-69
2024/04/03 08:45:07;;;;;;;7.15;2.15;;;15.10;96.70;;;;;;5057543;28;20051;-69
2024/04/03 08:47:35;;;;;;;4.40;1.45;;;15.20;96.70;;;;;;5074260;28;20082;-69
2024/04/03 08:50:07;;;;;;;6.57;1.83;;;15.20;96.70;;;;;;5057807;28;20047;-69
2024/04/03 08:52:38;;;;;;;6.18;1.42;;;15.30;96.70;;;;;;5057333;28;20047;-69
2024/04/03 08:55:14;;;;;;;6.25;1.42;;;15.40;96.70;;;;;;5057341;28;20096;-69
2024/04/03 08:57:43;;;;;;;7.25;1.33;;;15.50;96.70;;;;;;5070923;28;20063;-69
2024/04/03 09:00:13;;;;;;;4.82;1.30;;;15.50;96.70;;;;;;5057246;28;20086;-68
2024/04/03 09:02:40;;;;;;;7.35;1.30;;;15.50;96.70;;;;;;5057036;28;20056;-68
2024/04/03 09:05:10;;;;;;;6.03;1.60;;;15.50;96.70;;;;;;5073807;28;20052;-69
2024/04/03 09:07:40;;;;;;;3.75;1.30;;;15.60;96.70;;;;;;5057445;28;20047;-69
2024/04/03 09:10:10;;;;;;;4.22;1.20;;;15.60;96.70;;;;;;5073833;28;20062;-69
2024/04/03 09:12:39;;;;;;;5.50;1.38;;;15.70;96.70;;;;;;5056716;28;20583;-69
2024/04/03 09:15:07;;;;;;;10.85;1.80;;;15.70;96.70;;;;;;5073281;28;20039;-68
2024/04/03 09:17:34;;;;;;;7.68;1.92;;;15.80;96.70;;;;;;5053402;28;20467;-69
2024/04/03 09:20:04;;;;;;;5.78;1.80;;;15.90;96.70;;;;;;5056186;28;20094;-69
2024/04/03 09:22:33;;;;;;;7.25;2.08;;;15.90;96.70;;;;;;5057237;28;20052;-69
2024/04/03 09:25:06;;;;;;;5.78;1.80;;;16.00;96.70;;;;;;5072649;28;20040;-69
2024/04/03 09:27:35;;;;;;;6.72;2.00;;;16.00;96.70;;;;;;5058320;28;20050;-69
2024/04/03 09:30:06;;;;;;;5.15;2.22;;;16.00;96.70;;;;;;5056701;28;20054;-69
2024/04/03 09:32:33;;;;;;;7.30;1.88;;;16.00;96.70;;;;;;5073792;28;20044;-69
2024/04/03 09:35:02;;;;;;;7.22;2.47;;;16.00;96.70;;;;;;5053908;28;20649;-69
2024/04/03 09:37:32;;;;;;;7.88;2.38;;;16.00;96.70;;;;;;5072969;28;20100;-69
2024/04/03 09:40:06;;;;;;;5.85;2.55;;;16.10;96.70;;;;;;5054857;28;20067;-69
2024/04/03 09:42:36;;;;;;;8.98;2.78;;;16.10;96.70;;;;;;5057037;28;20047;-69
2024/04/03 09:45:07;;;;;;;7.88;2.63;;;16.10;96.70;;;;;;5053279;28;20040;-69
2024/04/03 09:47:36;;;;;;;8.27;2.60;;;16.00;96.70;;;;;;5056364;28;20135;-69
2024/04/03 09:50:09;;;;;;;9.88;3.83;;;16.00;96.70;;;;;;5054015;28;20044;-69
2024/04/03 09:52:37;;;;;;;7.88;2.88;;;16.00;96.70;;;;;;5056651;28;20043;-68
2024/04/03 09:55:09;;;;;;;10.43;3.80;;;16.10;96.70;;;;;;5053277;28;20412;-69
2024/04/03 09:57:38;;;;;;;8.45;2.70;;;16.10;96.70;;;;;;5072722;28;20052;-68
2024/04/03 10:00:10;;;;;;;7.72;3.25;;;16.10;96.70;;;;;;5056813;28;20584;-69
2024/04/03 10:02:48;;;;;;;13.05;3.50;;;16.10;96.70;;;;;;5073442;28;20068;-69
2024/04/03 10:05:15;;;;;;;10.07;3.47;;;16.20;96.70;;;;;;5052925;28;20079;-68
2024/04/03 10:07:43;;;;;;;13.77;3.45;;;16.30;96.70;;;;;;5068267;28;20043;-69
2024/04/03 10:10:20;;;;;;;8.70;3.25;;;16.40;96.70;;;;;;5056231;28;20055;-68
2024/04/03 10:12:48;;;;;;;7.22;2.97;;;16.50;96.70;;;;;;5088952;28;20047;-69
2024/04/03 10:15:22;;;;;;;7.93;2.67;;;16.70;96.70;;;;;;5073469;28;20051;-69
2024/04/03 10:17:50;;;;;;;8.15;3.28;;;16.90;96.70;;;;;;5072261;28;20047;-68
2024/04/03 10:20:35;;;;;;;7.15;2.95;;;17.00;96.70;;;;;;5072414;28;20043;-68
2024/04/03 10:23:14;;;;;;;5.07;2.50;;;17.10;96.70;;;;;;5056004;28;20511;-69
2024/04/03 10:25:47;;;;;;;6.25;2.47;;;17.40;96.70;;;;;;5054384;28;20044;-69
2024/04/03 10:28:19;;;;;;;6.82;3.00;;;17.40;96.70;;;;;;5071338;28;20067;-69
2024/04/03 10:30:57;;;;;;;7.25;2.08;;;17.50;96.70;;;;;;5055449;28;20061;-69
2024/04/03 10:33:27;;;;;;;5.80;2.90;;;17.50;96.70;;;;;;5065075;28;20047;-69
2024/04/03 10:35:54;;;;;;;7.50;2.10;;;17.50;96.70;;;;;;5071845;28;20055;-69
2024/04/03 10:38:25;;;;;;;6.43;2.45;;;17.50;96.70;;;;;;5072762;28;20120;-69
2024/04/03 10:40:57;;;;;;;4.32;1.80;;;17.40;96.70;;;;;;5072167;28;20397;-68
2024/04/03 10:43:25;;;;;;;6.50;2.03;;;17.50;96.70;;;;;;5071766;28;20134;-69
2024/04/03 10:45:53;;;;;;;5.25;2.28;;;17.60;96.70;;;;;;5055556;28;20420;-68
2024/04/03 10:48:26;;;;;;;4.50;1.88;;;17.70;96.70;;;;;;5055421;28;20135;-69
2024/04/03 10:50:54;;;;;;;5.13;1.75;;;17.60;96.70;;;;;;5071724;28;20040;-69
2024/04/03 10:53:22;;;;;;;5.10;1.85;;;17.60;96.70;;;;;;5070881;28;20052;-70
2024/04/03 10:55:52;;;;;;;8.05;2.35;;;17.70;96.70;;;;;;5053915;28;20560;-69
2024/04/03 10:58:21;;;;;;;6.50;2.25;;;17.90;96.70;;;;;;5054936;28;20056;-69
2024/04/03 11:00:50;;;;;;;5.88;1.80;;;18.00;96.70;;;;;;5049670;28;20052;-68
2024/04/03 11:03:19;;;;;;;9.52;2.58;;;18.10;96.70;;;;;;5063848;28;20079;-69
2024/04/03 11:05:48;;;;;;;6.15;1.98;;;18.20;96.70;;;;;;5053833;28;20103;-68
2024/04/03 11:08:16;;;;;;;5.72;2.33;;;18.20;96.70;;;;;;5054452;28;20067;-69
2024/04/03 11:10:44;;;;;;;7.93;2.13;;;18.10;96.70;;;;;;5054375;28;20075;-69
2024/04/03 11:13:13;;;;;;;9.52;2.47;;;18.10;96.70;;;;;;5053855;28;20051;-68
2024/04/03 11:15:42;;;;;;;5.53;2.08;;;18.20;96.70;;;;;;5053859;28;20070;-69
2024/04/03 11:18:11;;;;;;;6.25;1.75;;;18.30;96.70;;;;;;5069778;28;20051;-69
2024/04/03 11:20:38;;;;;;;4.35;2.17;;;18.40;96.70;;;;;;5060190;28;20055;-69
2024/04/03 11:23:06;;;;;;;5.15;2.00;;;18.70;96.70;;;;;;5070099;28;20421;-68
2024/04/03 11:25:35;;;;;;;4.70;1.75;;;18.70;96.70;;;;;;5070158;28;20051;-69
2024/04/03 11:28:05;;;;;;;4.65;2.25;;;18.90;96.70;;;;;;5051968;28;20402;-69
2024/04/03 11:30:35;;;;;;;5.43;1.98;;;19.00;96.70;;;;;;5066469;28;20040;-70
2024/04/03 11:33:08;;;;;;;8.63;2.13;;;19.10;96.70;;;;;;5070599;28;20078;-70
2024/04/03 11:35:36;;;;;;;6.80;2.10;;;19.40;96.70;;;;;;5051329;28;20050;-69
2024/04/03 11:38:05;;;;;;;9.55;1.90;;;19.60;96.70;;;;;;5053291;28;20043;-70
2024/04/03 11:40:33;;;;;;;6.35;2.08;;;19.60;96.70;;;;;;5066808;28;20043;-70
2024/04/03 11:43:01;;;;;;;6.03;2.20;;;19.40;96.70;;;;;;5053566;28;20112;-69
2024/04/03 11:45:28;;;;;;;9.35;2.25;;;19.30;96.70;;;;;;5069894;28;20070;-68
2024/04/03 11:47:56;;;;;;;6.25;1.95;;;19.20;96.70;;;;;;5050264;28;20161;-69
2024/04/03 11:50:27;;;;;;;5.60;1.80;;;19.40;96.70;;;;;;5058761;28;20056;-69
2024/04/03 11:52:55;;;;;;;4.70;2.40;;;19.70;96.70;;;;;;5057719;28;20058;-68
2024/04/03 11:55:23;;;;;;;5.13;2.00;;;19.70;96.70;;;;;;5058169;28;20067;-70
2024/04/03 11:57:51;;;;;;;5.32;2.00;;;19.70;96.70;;;;;;5074714;28;20193;-70
2024/04/03 12:00:20;;;;;;;6.53;2.03;;;19.80;96.70;;;;;;5057581;28;20569;-69
2024/04/03 12:02:48;;;;;;;5.90;2.10;;;20.00;96.70;;;;;;5072374;28;20044;-69
2024/04/03 12:05:16;;;;;;;4.57;2.20;;;20.10;96.70;;;;;;5057618;28;20066;-69
2024/04/03 12:07:46;;;;;;;5.78;1.90;;;20.10;96.70;;;;;;5052551;28;20047;-69
2024/04/03 12:10:15;;;;;;;4.70;1.85;;;19.90;96.70;;;;;;5073757;28;20362;-69
2024/04/03 12:12:44;;;;;;;5.78;1.90;;;19.80;96.70;;;;;;5078197;28;20055;-68
2024/04/03 12:15:13;;;;;;;5.13;2.10;;;19.90;96.70;;;;;;5062220;28;20265;-69
2024/04/03 12:17:40;;;;;;;3.70;1.95;;;20.30;96.70;;;;;;5058231;28;20139;-69
2024/04/03 12:20:09;;;;;;;5.57;1.70;;;20.30;96.70;;;;;;5072779;28;20143;-70
2024/04/03 12:22:37;;;;;;;3.97;1.77;;;20.20;96.70;;;;;;5073195;28;20470;-69
2024/04/03 12:25:06;;;;;;;5.93;1.98;;;20.00;96.70;;;;;;5057165;28;20044;-70
2024/04/03 12:27:33;;;;;;;5.10;1.95;;;19.80;96.70;;;;;;5056163;28;20063;-69
2024/04/03 12:30:01;;;;;;;4.35;1.80;;;19.70;96.70;;;;;;5057248;28;20141;-69
2024/04/03 12:32:29;;;;;;;6.18;1.58;;;19.60;96.70;;;;;;5056721;28;20069;-70
2024/04/03 12:34:57;;;;;;;4.05;1.33;;;19.50;96.70;;;;;;5053367;28;20080;-70
2024/04/03 12:37:24;;;;;;;3.10;1.30;;;19.50;96.70;;;;;;5057629;28;20049;-69
2024/04/03 12:39:52;;;;;;;5.10;1.17;;;19.50;96.70;;;;;;5054653;28;20044;-69
2024/04/03 12:42:20;;;;;;;3.10;1.00;;;19.50;96.70;;;;;;5072231;28;20085;-70
2024/04/03 12:44:49;;;;;;;5.18;0.95;;;19.60;96.70;;;;;;5074478;28;20061;-69
2024/04/03 12:47:18;;;;;;;3.05;0.80;;;20.10;96.70;;;;;;5091303;28;20100;-68
2024/04/03 12:49:45;;;;;;;2.10;0.70;;;20.00;96.70;;;;;;5057666;28;20062;-69
2024/04/03 12:52:12;;;;;;;3.95;0.73;;;20.00;96.70;;;;;;5074308;28;20051;-68
2024/04/03 12:54:40;;;;;;;2.17;0.70;;;20.30;96.70;;;;;;5074329;28;20155;-69
2024/04/03 12:57:08;;;;;;;3.22;1.10;;;20.60;96.70;;;;;;5072806;28;20134;-69